Time;durP1;ratioP1;P1;durP2;ratioP2;P2;SDS_P1;SDS_P2;PMS_P1;PMS_P2;Temp;Humidity;BMP_temperature;BMP_pressure;BME280_temperature;BME280_humidity;BME280_pressure;Samples;Min_cycle;Max_cycle;Signal;HPM_P1;HPM_P2
2021/05/22 00:01:24;;;;;;;1.20;0.93;;;12.00;96.20;;;;;;5054662;28;20470;-70
2021/05/22 00:03:51;;;;;;;1.20;0.90;;;12.00;95.80;;;;;;5051820;28;20552;-71
2021/05/22 00:06:18;;;;;;;1.20;1.00;;;12.10;96.00;;;;;;5054725;28;20467;-71
2021/05/22 00:08:44;;;;;;;1.20;1.00;;;12.10;95.60;;;;;;5051920;28;20462;-70
2021/05/22 00:11:12;;;;;;;1.20;1.00;;;12.00;95.60;;;;;;5054586;28;20528;-70
2021/05/22 00:13:38;;;;;;;1.20;1.00;;;12.00;95.70;;;;;;5051731;28;20453;-71
2021/05/22 00:16:05;;;;;;;1.20;0.90;;;12.10;95.80;;;;;;5054372;28;20465;-72
2021/05/22 00:18:32;;;;;;;1.50;1.10;;;12.10;95.30;;;;;;5051629;28;20450;-70
2021/05/22 00:20:58;;;;;;;1.20;1.00;;;12.10;95.60;;;;;;5054175;28;20452;-70
2021/05/22 00:23:25;;;;;;;1.20;1.00;;;12.10;95.60;;;;;;5051409;28;20496;-72
2021/05/22 00:25:52;;;;;;;1.20;1.00;;;12.10;95.40;;;;;;5054114;28;20516;-71
2021/05/22 00:28:19;;;;;;;1.20;1.00;;;12.10;95.40;;;;;;5051358;28;20460;-70
2021/05/22 00:30:46;;;;;;;1.20;1.20;;;12.00;95.60;;;;;;5054216;28;20468;-71
2021/05/22 00:33:12;;;;;;;1.20;1.00;;;12.00;95.50;;;;;;5051476;28;20455;-70
2021/05/22 00:35:39;;;;;;;1.20;1.00;;;12.10;95.30;;;;;;5054253;28;20838;-71
2021/05/22 00:38:05;;;;;;;1.20;1.00;;;12.00;95.10;;;;;;5051370;28;21003;-70
2021/05/22 00:40:32;;;;;;;1.20;1.00;;;11.90;95.30;;;;;;5054063;28;20960;-70
2021/05/22 00:42:58;;;;;;;1.20;0.97;;;11.80;95.30;;;;;;5053381;28;20459;-71
2021/05/22 00:45:26;;;;;;;1.20;1.00;;;11.80;95.40;;;;;;5052384;28;20462;-70
2021/05/22 00:47:56;;;;;;;1.20;1.10;;;11.80;95.40;;;;;;5054136;28;20468;-71
2021/05/22 00:50:24;;;;;;;1.20;0.90;;;11.80;95.50;;;;;;5050094;28;20466;-70
2021/05/22 00:52:51;;;;;;;1.20;0.90;;;11.90;95.50;;;;;;5054006;28;20467;-70
2021/05/22 00:55:18;;;;;;;1.20;1.00;;;11.90;95.30;;;;;;5050952;28;20934;-71
2021/05/22 00:57:45;;;;;;;1.20;1.00;;;11.90;95.40;;;;;;5053829;28;20461;-70
2021/05/22 01:00:15;;;;;;;1.20;0.90;;;11.90;95.70;;;;;;5050858;28;20459;-71
2021/05/22 01:02:44;;;;;;;1.20;1.00;;;11.90;95.60;;;;;;5053576;28;20503;-72
2021/05/22 01:05:12;;;;;;;1.20;1.00;;;11.80;95.70;;;;;;5050641;28;20464;-70
2021/05/22 01:07:39;;;;;;;1.20;1.00;;;11.80;95.90;;;;;;5053581;28;20465;-70
2021/05/22 01:10:07;;;;;;;1.20;1.00;;;11.80;96.00;;;;;;5050611;28;20871;-69
2021/05/22 01:12:37;;;;;;;1.20;1.03;;;11.70;96.50;;;;;;5053461;28;20933;-70
2021/05/22 01:15:06;;;;;;;1.20;1.00;;;11.70;96.70;;;;;;5050396;28;20455;-70
2021/05/22 01:17:35;;;;;;;1.20;0.90;;;11.70;96.60;;;;;;5053230;28;20459;-71
2021/05/22 01:20:14;;;;;;;1.20;0.90;;;11.70;96.40;;;;;;5050307;28;20804;-71
2021/05/22 01:22:44;;;;;;;1.20;1.00;;;11.70;97.10;;;;;;5053048;28;20460;-70
2021/05/22 01:25:29;;;;;;;1.20;1.00;;;11.70;96.80;;;;;;5048957;28;20478;-70
2021/05/22 01:27:58;;;;;;;1.20;1.00;;;11.80;96.40;;;;;;5053148;28;20457;-70
2021/05/22 01:30:24;;;;;;;1.20;0.90;;;11.70;96.70;;;;;;5050314;28;20477;-71
2021/05/22 01:32:51;;;;;;;1.20;0.90;;;11.60;97.00;;;;;;5053132;28;21167;-71
2021/05/22 01:35:19;;;;;;;1.20;1.00;;;11.60;97.20;;;;;;5050383;28;20465;-70
2021/05/22 01:37:46;;;;;;;1.20;0.90;;;11.60;97.00;;;;;;5053247;28;20455;-71
2021/05/22 01:43:38;;;;;;;1.50;1.30;;;11.50;97.30;;;;;;5049325;28;20508;-71
2021/05/22 01:46:06;;;;;;;1.20;0.97;;;11.60;97.10;;;;;;5052122;28;20462;-72
2021/05/22 01:48:33;;;;;;;1.20;1.00;;;11.60;97.10;;;;;;5049099;28;20496;-70
2021/05/22 01:51:03;;;;;;;1.20;1.00;;;11.60;97.40;;;;;;5051899;28;20467;-70
2021/05/22 01:53:30;;;;;;;1.20;0.90;;;11.60;97.60;;;;;;5049562;28;20491;-71
2021/05/22 01:55:58;;;;;;;1.20;1.00;;;11.60;97.70;;;;;;5051181;28;20455;-71
2021/05/22 01:58:25;;;;;;;1.20;1.00;;;11.60;97.60;;;;;;5049261;28;20471;-70
2021/05/22 02:00:52;;;;;;;1.20;1.03;;;11.60;97.80;;;;;;5052322;28;20492;-71
2021/05/22 02:03:27;;;;;;;1.20;1.00;;;11.60;98.00;;;;;;5049426;28;20491;-72
2021/05/22 02:05:55;;;;;;;1.20;1.00;;;11.60;98.00;;;;;;5052273;28;20530;-72
2021/05/22 02:08:23;;;;;;;1.20;0.90;;;11.50;98.00;;;;;;5049027;28;20457;-71
2021/05/22 02:10:51;;;;;;;1.30;1.10;;;11.50;98.00;;;;;;5052378;28;20466;-72
2021/05/22 02:13:19;;;;;;;1.20;1.00;;;11.40;98.00;;;;;;5049138;28;21023;-72
2021/05/22 02:15:50;;;;;;;1.20;1.00;;;11.50;98.00;;;;;;5052224;28;20958;-71
2021/05/22 02:18:18;;;;;;;1.20;1.00;;;11.50;98.00;;;;;;5048953;28;20458;-71
2021/05/22 02:20:46;;;;;;;1.20;0.90;;;11.50;98.00;;;;;;5052116;28;20529;-71
2021/05/22 02:23:15;;;;;;;1.20;1.00;;;11.50;98.00;;;;;;5049172;28;20489;-71
2021/05/22 02:25:41;;;;;;;1.20;1.00;;;11.50;98.00;;;;;;5052015;28;20450;-72
2021/05/22 02:28:10;;;;;;;1.20;0.90;;;11.50;98.00;;;;;;5051795;28;20797;-72
2021/05/22 02:30:41;;;;;;;1.20;1.00;;;11.40;98.00;;;;;;5050675;28;20493;-72
2021/05/22 02:33:11;;;;;;;1.30;0.97;;;11.50;98.00;;;;;;5051811;28;20796;-71
2021/05/22 02:35:40;;;;;;;1.20;0.93;;;11.40;98.00;;;;;;5049920;28;20459;-73
2021/05/22 02:38:09;;;;;;;1.20;1.00;;;11.20;98.00;;;;;;5051105;28;20454;-71
2021/05/22 02:40:36;;;;;;;1.20;0.93;;;11.00;98.00;;;;;;5049070;28;20976;-71
2021/05/22 02:43:06;;;;;;;1.20;1.10;;;11.00;98.00;;;;;;5051517;28;20495;-71
2021/05/22 02:45:35;;;;;;;1.20;1.00;;;10.80;98.00;;;;;;5049037;28;20867;-71
2021/05/22 02:48:03;;;;;;;1.20;0.90;;;10.70;98.00;;;;;;5051932;28;20498;-73
2021/05/22 02:50:33;;;;;;;1.20;0.90;;;10.60;98.00;;;;;;5048636;28;20497;-72
2021/05/22 02:53:01;;;;;;;1.20;0.90;;;10.70;98.00;;;;;;5051647;28;20462;-71
2021/05/22 02:55:29;;;;;;;1.20;1.00;;;10.70;98.00;;;;;;5048552;28;20489;-71
2021/05/22 02:57:56;;;;;;;1.20;0.90;;;10.60;98.00;;;;;;5051365;28;21193;-71
2021/05/22 03:00:23;;;;;;;1.20;1.00;;;10.30;98.00;;;;;;5047315;28;20460;-70
2021/05/22 03:02:53;;;;;;;1.30;1.10;;;10.20;98.00;;;;;;5051482;28;20548;-71
2021/05/22 03:05:19;;;;;;;1.20;0.97;;;10.00;98.00;;;;;;5048312;28;20573;-71
2021/05/22 03:07:47;;;;;;;1.20;0.90;;;9.90;98.00;;;;;;5051477;28;20464;-70
2021/05/22 03:10:16;;;;;;;1.20;1.00;;;9.70;98.00;;;;;;5046938;28;20460;-72
2021/05/22 03:12:45;;;;;;;1.20;0.97;;;9.70;98.00;;;;;;5049621;28;20485;-71
2021/05/22 03:15:14;;;;;;;1.20;0.90;;;9.80;98.00;;;;;;5045763;28;20464;-69
2021/05/22 03:17:41;;;;;;;1.20;1.00;;;9.90;98.00;;;;;;5051418;28;20449;-70
2021/05/22 03:20:09;;;;;;;1.20;1.00;;;10.00;98.00;;;;;;5047216;28;20462;-71
2021/05/22 03:22:37;;;;;;;1.20;0.90;;;10.10;98.00;;;;;;5051220;28;20873;-70
2021/05/22 03:25:04;;;;;;;1.20;1.00;;;10.20;98.00;;;;;;5047194;28;20522;-70
2021/05/22 03:27:32;;;;;;;1.20;0.90;;;10.20;98.00;;;;;;5051182;28;20541;-71
2021/05/22 03:29:58;;;;;;;1.20;0.90;;;10.30;98.00;;;;;;5048651;28;20455;-70
2021/05/22 03:32:25;;;;;;;1.60;1.00;;;10.30;98.00;;;;;;5051581;28;20987;-72
2021/05/22 03:34:51;;;;;;;1.20;0.90;;;10.30;98.00;;;;;;5048779;28;20460;-71
2021/05/22 03:37:19;;;;;;;1.20;1.00;;;10.30;98.00;;;;;;5051470;28;20801;-70
2021/05/22 03:39:46;;;;;;;1.20;1.00;;;10.30;98.00;;;;;;5048159;28;20465;-70
2021/05/22 03:42:13;;;;;;;1.30;1.10;;;10.40;98.00;;;;;;5051366;28;20460;-70
2021/05/22 03:44:40;;;;;;;1.20;0.90;;;10.40;98.00;;;;;;5048259;28;20487;-70
2021/05/22 03:47:07;;;;;;;1.20;0.90;;;10.40;98.00;;;;;;5049861;28;20468;-71
2021/05/22 03:49:35;;;;;;;1.20;0.90;;;10.40;98.00;;;;;;5048263;28;20466;-70
2021/05/22 03:52:02;;;;;;;1.20;0.93;;;10.30;98.00;;;;;;5051077;28;20865;-71
2021/05/22 03:54:28;;;;;;;1.20;1.00;;;10.30;98.00;;;;;;5048142;28;20453;-72
2021/05/22 03:56:55;;;;;;;1.20;0.90;;;10.20;98.00;;;;;;5051133;28;20458;-72
2021/05/22 03:59:21;;;;;;;1.20;1.00;;;10.30;98.00;;;;;;5046400;28;20875;-70
2021/05/22 04:01:50;;;;;;;1.20;1.00;;;10.40;98.00;;;;;;5050834;28;20540;-70
2021/05/22 04:04:16;;;;;;;1.20;0.90;;;10.40;98.00;;;;;;5047856;28;20489;-71
2021/05/22 04:06:43;;;;;;;1.20;1.00;;;10.50;98.00;;;;;;5049686;28;21068;-71
2021/05/22 04:09:09;;;;;;;1.20;1.00;;;10.50;98.00;;;;;;5046488;28;20855;-70
2021/05/22 04:11:36;;;;;;;1.20;1.00;;;10.60;98.00;;;;;;5050717;28;20917;-71
2021/05/22 04:14:03;;;;;;;1.20;1.00;;;10.60;98.00;;;;;;5046511;28;20831;-70
2021/05/22 04:16:32;;;;;;;1.20;1.00;;;10.60;98.00;;;;;;5049830;28;20458;-72
2021/05/22 04:19:02;;;;;;;1.20;0.97;;;10.60;98.00;;;;;;5047670;28;20517;-70
2021/05/22 04:21:29;;;;;;;1.20;1.00;;;10.70;98.00;;;;;;5049995;28;20511;-71
2021/05/22 04:23:55;;;;;;;1.30;1.03;;;10.70;98.00;;;;;;5047966;28;20975;-72
2021/05/22 04:26:22;;;;;;;1.30;1.10;;;10.60;98.00;;;;;;5053453;28;20550;-71
2021/05/22 04:28:48;;;;;;;1.40;1.00;;;10.70;98.00;;;;;;5050179;28;20493;-71
2021/05/22 04:31:15;;;;;;;1.30;1.10;;;10.70;98.00;;;;;;5054210;28;20491;-71
2021/05/22 04:33:42;;;;;;;1.20;0.90;;;10.80;98.00;;;;;;5051401;28;20468;-72
2021/05/22 04:36:11;;;;;;;1.20;1.00;;;10.80;98.00;;;;;;5054200;28;20957;-70
2021/05/22 04:38:38;;;;;;;1.20;0.90;;;10.70;98.00;;;;;;5050122;28;20462;-71
2021/05/22 04:41:04;;;;;;;1.20;0.90;;;10.60;98.00;;;;;;5054110;28;20476;-70
2021/05/22 04:43:30;;;;;;;2.10;1.00;;;10.60;98.00;;;;;;5051111;28;20984;-71
2021/05/22 04:45:57;;;;;;;1.20;0.90;;;10.70;98.00;;;;;;5053908;28;20863;-71
2021/05/22 04:48:24;;;;;;;1.20;0.90;;;10.70;98.00;;;;;;5051903;28;20445;-69
2021/05/22 04:50:54;;;;;;;1.20;0.90;;;10.70;98.00;;;;;;5052713;28;20462;-71
2021/05/22 04:53:22;;;;;;;1.20;0.90;;;10.80;98.00;;;;;;5052556;28;20448;-71
2021/05/22 04:55:49;;;;;;;1.20;1.00;;;10.90;98.00;;;;;;5050323;28;20461;-71
2021/05/22 04:58:15;;;;;;;1.20;1.00;;;10.90;98.00;;;;;;5052652;28;20933;-70
2021/05/22 05:00:42;;;;;;;1.20;1.00;;;11.00;98.00;;;;;;5051092;28;20603;-71
2021/05/22 05:03:09;;;;;;;1.20;1.10;;;11.00;98.00;;;;;;5052077;28;20488;-71
2021/05/22 05:05:36;;;;;;;1.20;1.00;;;11.00;98.00;;;;;;5051023;28;20462;-70
2021/05/22 05:08:02;;;;;;;1.20;0.90;;;10.90;98.00;;;;;;5053602;28;20457;-71
2021/05/22 05:10:30;;;;;;;1.20;0.90;;;10.90;98.00;;;;;;5050818;28;20552;-70
2021/05/22 05:12:56;;;;;;;1.20;0.90;;;10.80;98.00;;;;;;5052525;28;20932;-71
2021/05/22 05:15:23;;;;;;;1.20;0.90;;;10.80;98.00;;;;;;5051047;28;20496;-70
2021/05/22 05:17:49;;;;;;;1.20;1.00;;;10.90;98.00;;;;;;5053602;28;20467;-70
2021/05/22 05:20:16;;;;;;;1.20;1.00;;;10.80;98.00;;;;;;5050744;28;20445;-70
2021/05/22 05:22:42;;;;;;;1.20;0.90;;;11.00;98.00;;;;;;5053344;28;20600;-71
2021/05/22 05:25:12;;;;;;;1.20;0.90;;;11.10;98.00;;;;;;5050411;28;20525;-72
2021/05/22 05:27:39;;;;;;;1.20;1.00;;;11.10;98.00;;;;;;5053218;28;20507;-70
2021/05/22 05:30:07;;;;;;;1.20;1.00;;;11.30;98.00;;;;;;5050263;28;20489;-70
2021/05/22 05:32:33;;;;;;;1.20;0.90;;;11.20;98.00;;;;;;5051811;28;20746;-71
2021/05/22 05:35:00;;;;;;;1.20;0.90;;;11.30;98.00;;;;;;5050488;28;20453;-70
2021/05/22 05:37:27;;;;;;;1.20;0.90;;;11.30;98.00;;;;;;5052585;28;20509;-71
2021/05/22 05:39:54;;;;;;;1.20;0.90;;;11.20;98.00;;;;;;5050313;28;20855;-71
2021/05/22 05:42:21;;;;;;;1.20;1.00;;;11.20;98.00;;;;;;5051727;28;20496;-70
2021/05/22 05:44:48;;;;;;;1.20;0.90;;;11.10;98.00;;;;;;5050042;28;20585;-71
2021/05/22 05:47:15;;;;;;;1.20;1.00;;;11.10;98.00;;;;;;5052757;28;20454;-70
2021/05/22 05:49:41;;;;;;;1.20;0.93;;;11.20;98.00;;;;;;5048756;28;20473;-70
2021/05/22 05:52:08;;;;;;;1.20;0.93;;;11.30;98.00;;;;;;5052476;28;20467;-71
2021/05/22 05:54:36;;;;;;;1.20;1.00;;;11.50;98.00;;;;;;5049745;28;20833;-70
2021/05/22 05:57:03;;;;;;;1.20;1.00;;;11.70;98.00;;;;;;5051311;28;20468;-70
2021/05/22 05:59:29;;;;;;;1.20;1.00;;;11.70;98.00;;;;;;5049788;28;20500;-71
2021/05/22 06:01:57;;;;;;;1.20;1.10;;;11.70;98.00;;;;;;5052512;28;20455;-70
2021/05/22 06:04:23;;;;;;;1.20;1.00;;;11.70;98.00;;;;;;5049707;28;21076;-70
2021/05/22 06:06:50;;;;;;;1.80;1.03;;;11.70;98.00;;;;;;5052512;28;20483;-70
2021/05/22 06:09:17;;;;;;;1.20;0.90;;;11.70;98.00;;;;;;5049850;28;20464;-71
2021/05/22 06:11:43;;;;;;;1.20;1.00;;;11.70;98.00;;;;;;5052547;28;20476;-71
2021/05/22 06:14:14;;;;;;;1.20;0.90;;;11.80;98.00;;;;;;5049552;28;20472;-70
2021/05/22 06:16:41;;;;;;;1.20;0.90;;;11.80;98.00;;;;;;5052484;28;20847;-71
2021/05/22 06:19:09;;;;;;;1.20;0.90;;;11.80;98.00;;;;;;5049621;28;20559;-70
2021/05/22 06:21:37;;;;;;;1.20;1.00;;;11.90;98.00;;;;;;5052230;28;20996;-71
2021/05/22 06:24:05;;;;;;;1.20;0.90;;;11.90;98.00;;;;;;5049130;28;20495;-70
2021/05/22 06:26:32;;;;;;;1.20;0.90;;;11.90;98.00;;;;;;5052186;28;20971;-71
2021/05/22 06:28:59;;;;;;;1.20;0.90;;;12.00;98.00;;;;;;5049341;28;20452;-67
2021/05/22 06:31:25;;;;;;;1.20;1.00;;;12.10;98.00;;;;;;5052019;28;20492;-71
2021/05/22 06:33:52;;;;;;;1.20;1.00;;;12.20;98.00;;;;;;5049200;28;20458;-70
2021/05/22 06:36:19;;;;;;;1.20;1.00;;;12.30;98.00;;;;;;5051786;28;20961;-71
2021/05/22 06:38:45;;;;;;;1.20;1.00;;;12.40;98.00;;;;;;5048987;28;20967;-71
2021/05/22 06:41:12;;;;;;;1.20;1.00;;;12.40;98.00;;;;;;5051704;28;20847;-70
2021/05/22 06:43:39;;;;;;;1.20;0.90;;;12.30;98.00;;;;;;5049496;28;20572;-72
2021/05/22 06:46:46;;;;;;;1.20;0.90;;;12.40;98.00;;;;;;5051451;28;20540;-70
2021/05/22 06:48:54;;;;;;;1.20;0.90;;;12.40;98.00;;;;;;5047717;28;20515;-70
2021/05/22 06:51:22;;;;;;;1.20;0.90;;;12.50;98.00;;;;;;5051565;28;20457;-70
2021/05/22 06:53:48;;;;;;;1.20;0.93;;;12.50;98.00;;;;;;5048598;28;20503;-71
2021/05/22 06:56:15;;;;;;;1.20;1.00;;;12.60;98.00;;;;;;5051449;28;20499;-70
2021/05/22 06:58:41;;;;;;;1.20;1.00;;;12.70;98.00;;;;;;5048932;28;20852;-70
2021/05/22 07:01:08;;;;;;;1.20;1.07;;;12.70;98.00;;;;;;5051117;28;20466;-70
2021/05/22 07:03:34;;;;;;;1.20;0.90;;;12.70;98.00;;;;;;5051402;28;20947;-71
2021/05/22 07:06:02;;;;;;;1.20;1.00;;;12.80;98.00;;;;;;5048885;28;20546;-72
2021/05/22 07:08:29;;;;;;;1.20;0.90;;;12.90;98.00;;;;;;5051655;28;20501;-71
2021/05/22 07:10:56;;;;;;;1.20;1.00;;;12.90;98.00;;;;;;5048742;28;20461;-70
2021/05/22 07:13:22;;;;;;;1.20;0.90;;;13.10;98.00;;;;;;5051548;28;21023;-69
2021/05/22 07:15:50;;;;;;;1.20;1.00;;;13.20;98.00;;;;;;5048603;28;20516;-69
2021/05/22 07:18:16;;;;;;;1.20;1.00;;;13.20;98.00;;;;;;5051557;28;20951;-68
2021/05/22 07:20:43;;;;;;;1.30;1.10;;;13.30;98.00;;;;;;5048501;28;21059;-69
2021/05/22 07:23:09;;;;;;;1.20;1.00;;;13.40;98.00;;;;;;5051261;28;20892;-69
2021/05/22 07:25:38;;;;;;;1.30;1.10;;;13.60;97.30;;;;;;5048315;28;20517;-69
2021/05/22 07:28:06;;;;;;;1.20;1.10;;;13.80;98.00;;;;;;5051249;28;20489;-68
2021/05/22 07:30:33;;;;;;;1.20;0.90;;;14.00;96.10;;;;;;5046828;28;20788;-68
2021/05/22 07:33:00;;;;;;;1.20;0.93;;;14.00;94.90;;;;;;5051105;28;20464;-69
2021/05/22 07:35:27;;;;;;;1.20;1.00;;;14.10;95.30;;;;;;5048228;28;20480;-69
2021/05/22 07:37:53;;;;;;;1.20;0.97;;;14.10;93.50;;;;;;5051182;28;20496;-70
2021/05/22 07:40:20;;;;;;;1.20;1.00;;;13.90;94.00;;;;;;5048053;28;20541;-71
2021/05/22 07:42:48;;;;;;;1.20;1.20;;;13.90;93.00;;;;;;5049872;28;20455;-69
2021/05/22 07:45:15;;;;;;;1.20;1.00;;;13.90;94.00;;;;;;5047883;28;20862;-70
2021/05/22 07:47:42;;;;;;;1.20;0.90;;;13.80;94.70;;;;;;5050929;28;20495;-68
2021/05/22 07:50:14;;;;;;;1.20;1.00;;;13.90;95.40;;;;;;5046573;28;20466;-68
2021/05/22 07:52:41;;;;;;;1.20;0.90;;;13.90;94.60;;;;;;5049602;28;20454;-69
2021/05/22 07:55:08;;;;;;;1.20;0.90;;;13.90;93.90;;;;;;5047678;28;20999;-68
2021/05/22 07:57:35;;;;;;;1.20;1.00;;;13.90;93.20;;;;;;5049401;28;20510;-69
2021/05/22 08:00:04;;;;;;;1.20;1.00;;;14.10;95.10;;;;;;5049911;28;21314;-72
2021/05/22 08:02:31;;;;;;;1.70;1.50;;;14.20;93.50;;;;;;5054347;28;20490;-71
2021/05/22 08:04:58;;;;;;;1.20;1.00;;;14.30;91.40;;;;;;5050521;28;20488;-71
2021/05/22 08:07:24;;;;;;;1.20;1.00;;;14.40;90.80;;;;;;5053467;28;20982;-71
2021/05/22 08:09:51;;;;;;;1.20;1.00;;;14.50;89.90;;;;;;5050238;28;20477;-71
2021/05/22 08:12:17;;;;;;;1.20;1.03;;;14.60;89.90;;;;;;5053666;28;20988;-71
2021/05/22 08:14:44;;;;;;;1.30;1.10;;;14.60;90.30;;;;;;5050869;28;20919;-71
2021/05/22 08:17:11;;;;;;;1.20;1.00;;;14.80;89.80;;;;;;5053887;28;21126;-71
2021/05/22 08:19:37;;;;;;;1.20;1.00;;;14.90;91.20;;;;;;5050969;28;20461;-72
2021/05/22 08:22:04;;;;;;;3.33;1.20;;;15.00;88.80;;;;;;5053747;28;20462;-71
2021/05/22 08:24:30;;;;;;;1.20;1.00;;;14.80;88.40;;;;;;5050717;28;20478;-71
2021/05/22 08:26:57;;;;;;;1.20;1.00;;;14.60;85.90;;;;;;5053697;28;20491;-71
2021/05/22 08:29:23;;;;;;;1.30;1.10;;;14.60;86.10;;;;;;5050054;28;20458;-72
2021/05/22 08:31:50;;;;;;;1.20;1.00;;;14.80;88.30;;;;;;5053955;28;20504;-72
2021/05/22 08:34:17;;;;;;;1.20;1.10;;;15.10;86.80;;;;;;5051011;28;20463;-72
2021/05/22 08:36:44;;;;;;;1.20;1.00;;;15.20;84.70;;;;;;5054051;28;20499;-71
2021/05/22 08:39:15;;;;;;;1.20;1.10;;;15.20;83.10;;;;;;5050914;28;20467;-71
2021/05/22 08:41:44;;;;;;;1.20;0.90;;;15.50;86.10;;;;;;5053713;28;21016;-72
2021/05/22 08:44:10;;;;;;;1.20;1.00;;;15.50;83.60;;;;;;5050535;28;20530;-73
2021/05/22 08:46:37;;;;;;;1.20;1.00;;;15.50;83.00;;;;;;5053754;28;20464;-70
2021/05/22 08:49:06;;;;;;;1.20;1.00;;;15.60;82.10;;;;;;5050630;28;20566;-70
2021/05/22 08:51:37;;;;;;;1.20;1.00;;;15.60;81.70;;;;;;5053548;28;20451;-72
2021/05/22 08:54:04;;;;;;;1.20;1.10;;;15.70;83.50;;;;;;5050912;28;20959;-73
2021/05/22 08:56:36;;;;;;;1.20;1.00;;;15.80;80.10;;;;;;5053513;28;20458;-70
2021/05/22 08:59:03;;;;;;;1.20;1.00;;;15.80;80.70;;;;;;5050146;28;20467;-71
2021/05/22 09:01:31;;;;;;;1.20;1.00;;;15.70;83.30;;;;;;5053128;28;20517;-71
2021/05/22 09:03:58;;;;;;;1.20;1.00;;;15.70;83.00;;;;;;5048957;28;20484;-71
2021/05/22 09:06:26;;;;;;;1.20;1.00;;;15.60;82.30;;;;;;5053192;28;20461;-72
2021/05/22 09:09:03;;;;;;;1.20;1.00;;;15.70;84.70;;;;;;5051136;28;20519;-71
2021/05/22 09:11:31;;;;;;;1.20;1.00;;;15.80;82.90;;;;;;5052397;28;20458;-71
2021/05/22 09:13:57;;;;;;;1.40;1.10;;;16.10;85.60;;;;;;5049796;28;20460;-71
2021/05/22 09:16:35;;;;;;;1.20;1.00;;;16.20;81.50;;;;;;5053015;28;20489;-72
2021/05/22 09:19:02;;;;;;;1.20;1.03;;;16.30;81.20;;;;;;5049745;28;20483;-71
2021/05/22 09:21:34;;;;;;;1.20;1.00;;;16.10;82.80;;;;;;5053298;28;20831;-71
2021/05/22 09:24:02;;;;;;;1.20;1.00;;;16.10;83.50;;;;;;5049914;28;20894;-69
2021/05/22 09:26:33;;;;;;;1.20;1.00;;;16.40;82.20;;;;;;5050925;28;20496;-69
2021/05/22 09:29:01;;;;;;;1.20;1.10;;;16.50;80.00;;;;;;5049673;28;20457;-70
2021/05/22 09:31:28;;;;;;;1.20;1.03;;;16.40;79.20;;;;;;5052615;28;20456;-70
2021/05/22 09:33:59;;;;;;;1.20;0.97;;;16.50;77.90;;;;;;5051208;28;20997;-70
2021/05/22 09:36:25;;;;;;;1.20;0.97;;;16.50;77.70;;;;;;5052404;28;20970;-70
2021/05/22 09:38:54;;;;;;;1.20;1.00;;;16.50;74.60;;;;;;5052013;28;20467;-71
2021/05/22 09:41:24;;;;;;;1.20;1.07;;;16.50;75.20;;;;;;5051163;28;20464;-70
2021/05/22 09:44:13;;;;;;;1.20;1.00;;;16.70;75.50;;;;;;5052412;28;20524;-70
2021/05/22 09:46:59;;;;;;;1.20;1.17;;;16.90;75.20;;;;;;5049185;28;20547;-70
2021/05/22 09:49:28;;;;;;;1.20;1.00;;;17.00;75.60;;;;;;5048854;28;21007;-71
2021/05/22 09:52:00;;;;;;;1.40;1.20;;;17.10;74.80;;;;;;5051677;28;20464;-70
2021/05/22 09:54:42;;;;;;;1.20;1.10;;;17.00;75.60;;;;;;5049165;28;20454;-71
2021/05/22 09:57:11;;;;;;;1.20;1.00;;;17.00;74.10;;;;;;5052210;28;20514;-70
2021/05/22 09:59:38;;;;;;;1.20;0.90;;;17.10;73.80;;;;;;5048930;28;20453;-72
2021/05/22 10:02:04;;;;;;;1.20;1.10;;;17.10;73.90;;;;;;5051948;28;20458;-70
2021/05/22 10:04:31;;;;;;;1.30;1.10;;;17.00;75.40;;;;;;5048428;28;20503;-70
2021/05/22 10:06:58;;;;;;;1.20;1.00;;;16.90;74.80;;;;;;5052043;28;20473;-72
2021/05/22 10:09:26;;;;;;;1.20;1.00;;;16.70;74.20;;;;;;5048717;28;20465;-71
2021/05/22 10:12:08;;;;;;;1.20;1.00;;;16.70;76.20;;;;;;5050631;28;20458;-71
2021/05/22 10:14:37;;;;;;;1.20;1.00;;;16.90;75.20;;;;;;5048997;28;20510;-71
2021/05/22 10:17:05;;;;;;;2.37;1.23;;;17.00;77.40;;;;;;5052146;28;20484;-70
2021/05/22 10:19:33;;;;;;;1.47;1.40;;;17.10;74.30;;;;;;5048611;28;20648;-71
2021/05/22 10:22:04;;;;;;;1.20;1.10;;;17.20;73.90;;;;;;5051963;28;20456;-70
2021/05/22 10:24:33;;;;;;;1.20;1.07;;;17.30;73.60;;;;;;5047359;28;20485;-71
2021/05/22 10:27:00;;;;;;;1.20;1.00;;;17.50;73.50;;;;;;5051549;28;20497;-71
2021/05/22 10:29:30;;;;;;;1.20;1.07;;;17.70;71.20;;;;;;5048440;28;20533;-72
2021/05/22 10:31:58;;;;;;;1.20;1.07;;;17.60;72.70;;;;;;5050407;28;20457;-71
2021/05/22 10:34:26;;;;;;;1.20;1.10;;;17.50;73.10;;;;;;5048979;28;20461;-71
2021/05/22 10:36:54;;;;;;;1.20;1.10;;;17.70;73.10;;;;;;5051782;28;20457;-71
2021/05/22 10:39:39;;;;;;;1.20;1.00;;;17.90;70.10;;;;;;5048457;28;20469;-71
2021/05/22 10:42:09;;;;;;;1.20;1.00;;;17.70;72.10;;;;;;5051741;28;20608;-72
2021/05/22 10:44:38;;;;;;;1.20;1.00;;;17.80;71.90;;;;;;5048366;28;20571;-72
2021/05/22 10:47:09;;;;;;;1.93;1.30;;;17.90;71.10;;;;;;5051498;28;20466;-70
2021/05/22 10:49:54;;;;;;;1.20;1.00;;;17.80;68.40;;;;;;5048287;28;20464;-71
2021/05/22 10:52:22;;;;;;;1.20;1.00;;;17.70;69.40;;;;;;5051350;28;20547;-70
2021/05/22 10:55:00;;;;;;;1.20;1.10;;;17.80;70.10;;;;;;5048237;28;20441;-71
2021/05/22 10:57:28;;;;;;;1.20;1.10;;;18.10;70.40;;;;;;5050954;28;20457;-71
2021/05/22 11:00:23;;;;;;;2.17;1.40;;;17.90;69.90;;;;;;5048311;28;21032;-71
2021/05/22 11:02:53;;;;;;;1.20;1.10;;;18.20;70.10;;;;;;5051050;28;20461;-72
2021/05/22 11:05:37;;;;;;;1.20;1.00;;;18.70;69.00;;;;;;5048418;28;20513;-72
2021/05/22 11:08:30;;;;;;;1.20;1.00;;;18.90;66.80;;;;;;5051041;28;20446;-72
2021/05/22 11:11:00;;;;;;;1.20;1.00;;;18.60;67.30;;;;;;5049569;28;20556;-73
2021/05/22 11:13:40;;;;;;;1.20;1.00;;;18.50;69.70;;;;;;5051630;28;20454;-71
2021/05/22 11:16:08;;;;;;;1.20;1.00;;;19.00;68.40;;;;;;5049603;28;20476;-70
2021/05/22 11:19:01;;;;;;;1.20;1.00;;;19.40;69.40;;;;;;5051298;28;20786;-68
2021/05/22 11:21:28;;;;;;;1.20;1.00;;;19.70;69.70;;;;;;5050148;28;20492;-69
2021/05/22 11:24:16;;;;;;;1.20;1.00;;;19.40;68.10;;;;;;5051574;28;20457;-68
2021/05/22 11:27:02;;;;;;;1.30;1.10;;;19.20;66.50;;;;;;5051473;28;20454;-69
2021/05/22 11:29:58;;;;;;;5.27;1.10;;;19.40;67.30;;;;;;5049232;28;20467;-68
2021/05/22 11:32:45;;;;;;;1.20;1.00;;;19.70;68.40;;;;;;5051914;28;20991;-68
2021/05/22 11:35:50;;;;;;;1.20;1.00;;;20.20;66.90;;;;;;5052350;28;20454;-68
2021/05/22 11:38:34;;;;;;;1.20;1.10;;;20.50;65.60;;;;;;5054593;28;20457;-68
2021/05/22 11:41:13;;;;;;;1.20;1.00;;;20.60;65.60;;;;;;5052461;28;20975;-69
2021/05/22 11:43:45;;;;;;;1.30;1.30;;;20.00;64.80;;;;;;5054651;28;20932;-68
2021/05/22 11:46:13;;;;;;;3.10;1.10;;;19.50;66.10;;;;;;5052252;28;20489;-68
2021/05/22 11:48:43;;;;;;;1.20;1.10;;;19.20;66.50;;;;;;5054410;28;20461;-68
2021/05/22 11:51:14;;;;;;;1.20;1.10;;;19.70;67.80;;;;;;5052020;28;20844;-68
2021/05/22 11:53:42;;;;;;;1.20;1.10;;;19.80;68.70;;;;;;5054560;28;20461;-68
2021/05/22 11:56:13;;;;;;;1.30;1.00;;;19.50;68.00;;;;;;5051935;28;20453;-68
2021/05/22 11:58:41;;;;;;;1.20;1.00;;;19.20;66.20;;;;;;5054134;28;20507;-68
2021/05/22 12:01:14;;;;;;;1.20;1.00;;;18.80;69.20;;;;;;5051852;28;20542;-68
2021/05/22 12:03:46;;;;;;;1.20;1.00;;;18.30;69.50;;;;;;5053165;28;20449;-67
2021/05/22 12:06:31;;;;;;;1.20;1.00;;;18.80;67.50;;;;;;5051762;28;20493;-67
2021/05/22 12:09:08;;;;;;;1.20;1.10;;;19.20;66.10;;;;;;5054078;28;20457;-68
2021/05/22 12:11:37;;;;;;;1.20;1.10;;;19.20;64.90;;;;;;5053283;28;20468;-68
2021/05/22 12:14:05;;;;;;;2.23;1.40;;;19.10;64.50;;;;;;5054092;28;20454;-68
2021/05/22 12:16:33;;;;;;;1.20;1.00;;;19.60;65.50;;;;;;5051661;28;20456;-72
2021/05/22 12:19:11;;;;;;;1.20;1.00;;;20.40;65.20;;;;;;5053904;28;20987;-72
2021/05/22 12:21:39;;;;;;;1.30;1.13;;;20.20;63.20;;;;;;5053818;28;20508;-72
2021/05/22 12:24:09;;;;;;;1.20;1.10;;;20.20;64.40;;;;;;5052355;28;20462;-73
2021/05/22 12:26:41;;;;;;;1.20;1.10;;;20.80;70.40;;;;;;5052562;28;20457;-75
2021/05/22 12:29:10;;;;;;;1.30;1.30;;;21.50;69.90;;;;;;5051838;28;20462;-75
2021/05/22 12:31:47;;;;;;;1.20;1.00;;;22.00;65.00;;;;;;5051115;28;20461;-74
2021/05/22 12:34:14;;;;;;;1.20;1.10;;;21.70;60.90;;;;;;5050560;28;20460;-75
2021/05/22 12:36:56;;;;;;;1.20;1.07;;;21.90;62.50;;;;;;5052911;28;20462;-74
2021/05/22 12:39:24;;;;;;;1.27;1.20;;;21.80;66.60;;;;;;5048846;28;20497;-74
2021/05/22 12:41:51;;;;;;;1.30;1.20;;;21.10;66.70;;;;;;5052865;28;20465;-76
2021/05/22 12:44:21;;;;;;;1.20;1.07;;;20.90;61.60;;;;;;5050209;28;20534;-75
2021/05/22 12:46:58;;;;;;;1.20;1.10;;;20.90;63.40;;;;;;5050215;28;20477;-73
2021/05/22 12:49:31;;;;;;;1.20;1.07;;;21.10;60.70;;;;;;5049881;28;20465;-72
2021/05/22 12:52:07;;;;;;;1.20;1.10;;;21.20;61.30;;;;;;5052643;28;20537;-72
2021/05/22 12:54:43;;;;;;;1.20;1.07;;;21.20;61.40;;;;;;5050227;28;21054;-73
2021/05/22 12:57:12;;;;;;;1.37;1.20;;;20.80;62.50;;;;;;5052635;28;20462;-72
2021/05/22 12:59:40;;;;;;;1.20;1.10;;;20.90;62.30;;;;;;5049765;28;20579;-73
2021/05/22 13:02:24;;;;;;;1.20;1.10;;;21.00;61.80;;;;;;5052081;28;20458;-72